Daytona Beach, FL

1:58 AM EDT on July 28, 2016 (GMT -0400)
Daytona State College | | Change Station

Elev 0 ft 29.20 °N, 81.05 °W | Updated 4 minutes ago

Partly Cloudy
Partly Cloudy
81.5 °F
Feels Like 89 °F
N
2.0
Wind Variable Wind from SE
Gusts 10.0 mph

Today
High -- | Low -- °F
--% Chance of Precip.
Yesterday
High -- | Low -- °F
Precip. -- in
Pressure 30.06 in
Visibility 10.0 miles
Clouds Few 4000 ft
Heat Index 89 °F
Dew Point 77 °F
Humidity 85%
Rainfall 0.00 in
Snow Depth Not available.
6:42 AM 8:18 PM
Waning Crescent, 35% visible
METAR KDAB 280553Z 20004KT 10SM FEW040 26/24 A3006 RMK AO2 SLP179 OCNL LTGIC DSNT SW CB DSNT SW T02610239 10294 20261 58000 $
Pressure 30.06 in
Visibility 10.0 miles
Clouds Few 4000 ft
Heat Index 89 °F
Dew Point 77 °F
Humidity 85%
Rainfall 0.00 in
Snow Depth Not available.
6:42 AM 8:18 PM
Waning Crescent, 35% visible
METAR KDAB 280553Z 20004KT 10SM FEW040 26/24 A3006 RMK AO2 SLP179 OCNL LTGIC DSNT SW CB DSNT SW T02610239 10294 20261 58000 $

10-Day Weather Forecast

Almanac

Astronomy

Jul. 28, 2016 Rise Set
Actual Time
Civil Twilight
Nautical Twilight
Astronomical Twilight
Moon
Length of Visible Light
Length of Day
Tomorrow will be .
, % of the Moon is Illuminated

Today's Extremes

State Highs State Lows

Community

WunderPhotos

Upload Photos

1,928,064 photos uploaded!

WunderBlog® & News

Nearby

Air Quality

  Air Quality AQ Index Pollutant
Not available.

Snow Depth

Station Depth Elevation

Earthquake Activity

City Distance Mag. Time & Date
Minimum magnitude displayed is 2.5.

Coastal Water Temperatures

Place Temperature

Stations

Nearby Weather Stations

Station Location Temp. Windchill Dew Point Humidity Wind Precip. Elev Updated Type
                   

Watches & Warnings

There are currently no watches in effect.